sensor_id;sensor_type;location;lat;lon;timestamp;temperature;humidity
14475;DHT22;7323;50.848;4.334;2024-03-07T00:01:36;8.30;1.00
14475;DHT22;7323;50.848;4.334;2024-03-07T00:04:02;8.10;1.00
14475;DHT22;7323;50.848;4.334;2024-03-07T00:06:28;8.10;1.00
14475;DHT22;7323;50.848;4.334;2024-03-07T00:08:54;8.20;1.00
14475;DHT22;7323;50.848;4.334;2024-03-07T00:11:20;8.30;1.00
14475;DHT22;7323;50.848;4.334;2024-03-07T00:13:46;8.30;1.00
14475;DHT22;7323;50.848;4.334;2024-03-07T00:16:11;8.20;1.00
14475;DHT22;7323;50.848;4.334;2024-03-07T00:18:37;8.30;1.00
14475;DHT22;7323;50.848;4.334;2024-03-07T00:21:03;8.30;1.00
14475;DHT22;7323;50.848;4.334;2024-03-07T00:23:29;8.10;1.00
14475;DHT22;7323;50.848;4.334;2024-03-07T00:25:56;8.10;2.40
14475;DHT22;7323;50.848;4.334;2024-03-07T00:28:21;8.00;4.90
14475;DHT22;7323;50.848;4.334;2024-03-07T00:30:47;7.90;6.40
14475;DHT22;7323;50.848;4.334;2024-03-07T00:33:14;7.80;8.70
14475;DHT22;7323;50.848;4.334;2024-03-07T00:35:40;7.80;11.00
14475;DHT22;7323;50.848;4.334;2024-03-07T00:38:06;7.80;12.40
14475;DHT22;7323;50.848;4.334;2024-03-07T00:40:32;7.60;14.90
14475;DHT22;7323;50.848;4.334;2024-03-07T00:42:58;7.60;19.10
14475;DHT22;7323;50.848;4.334;2024-03-07T00:45:25;7.60;21.40
14475;DHT22;7323;50.848;4.334;2024-03-07T00:47:51;7.50;23.70
14475;DHT22;7323;50.848;4.334;2024-03-07T00:50:16;7.50;23.90
14475;DHT22;7323;50.848;4.334;2024-03-07T00:52:42;7.60;25.50
14475;DHT22;7323;50.848;4.334;2024-03-07T00:55:08;7.50;27.00
14475;DHT22;7323;50.848;4.334;2024-03-07T00:57:34;7.50;28.30
14475;DHT22;7323;50.848;4.334;2024-03-07T01:00:00;7.40;28.40
14475;DHT22;7323;50.848;4.334;2024-03-07T01:02:26;7.30;31.30
14475;DHT22;7323;50.848;4.334;2024-03-07T01:04:52;7.20;37.40
14475;DHT22;7323;50.848;4.334;2024-03-07T01:07:18;7.30;39.90
14475;DHT22;7323;50.848;4.334;2024-03-07T01:09:44;7.20;41.20
14475;DHT22;7323;50.848;4.334;2024-03-07T01:12:10;7.20;43.10
14475;DHT22;7323;50.848;4.334;2024-03-07T01:14:37;7.20;46.90
14475;DHT22;7323;50.848;4.334;2024-03-07T01:17:03;7.30;46.60
14475;DHT22;7323;50.848;4.334;2024-03-07T01:19:28;7.40;44.40
14475;DHT22;7323;50.848;4.334;2024-03-07T01:21:54;7.40;41.50
14475;DHT22;7323;50.848;4.334;2024-03-07T01:24:20;7.40;41.70
14475;DHT22;7323;50.848;4.334;2024-03-07T01:26:46;7.30;41.80
14475;DHT22;7323;50.848;4.334;2024-03-07T01:29:12;7.40;43.50
14475;DHT22;7323;50.848;4.334;2024-03-07T01:31:39;7.20;48.80
14475;DHT22;7323;50.848;4.334;2024-03-07T01:34:04;7.20;47.60
14475;DHT22;7323;50.848;4.334;2024-03-07T01:36:30;7.20;51.10
14475;DHT22;7323;50.848;4.334;2024-03-07T01:38:56;7.20;53.30
14475;DHT22;7323;50.848;4.334;2024-03-07T01:41:21;7.30;51.80
14475;DHT22;7323;50.848;4.334;2024-03-07T01:43:47;7.30;53.60
14475;DHT22;7323;50.848;4.334;2024-03-07T01:46:13;7.20;56.00
14475;DHT22;7323;50.848;4.334;2024-03-07T01:48:39;7.30;55.30
14475;DHT22;7323;50.848;4.334;2024-03-07T01:51:06;7.30;54.90
14475;DHT22;7323;50.848;4.334;2024-03-07T01:53:33;7.30;56.90
14475;DHT22;7323;50.848;4.334;2024-03-07T01:55:59;7.10;59.00
14475;DHT22;7323;50.848;4.334;2024-03-07T01:58:26;7.00;65.00
14475;DHT22;7323;50.848;4.334;2024-03-07T02:00:52;7.10;69.40
14475;DHT22;7323;50.848;4.334;2024-03-07T02:03:18;7.00;70.10
14475;DHT22;7323;50.848;4.334;2024-03-07T02:05:44;7.00;72.50
14475;DHT22;7323;50.848;4.334;2024-03-07T02:08:10;7.00;72.50
14475;DHT22;7323;50.848;4.334;2024-03-07T02:10:36;7.10;76.80
14475;DHT22;7323;50.848;4.334;2024-03-07T02:13:02;6.90;79.00
14475;DHT22;7323;50.848;4.334;2024-03-07T02:15:28;7.00;81.50
14475;DHT22;7323;50.848;4.334;2024-03-07T02:17:53;7.00;84.60
14475;DHT22;7323;50.848;4.334;2024-03-07T02:20:19;7.00;86.20
14475;DHT22;7323;50.848;4.334;2024-03-07T02:22:45;6.90;87.00
14475;DHT22;7323;50.848;4.334;2024-03-07T02:25:11;7.00;86.30
14475;DHT22;7323;50.848;4.334;2024-03-07T02:27:37;6.90;88.40
14475;DHT22;7323;50.848;4.334;2024-03-07T02:30:04;6.80;91.00
14475;DHT22;7323;50.848;4.334;2024-03-07T02:32:31;6.80;93.40
14475;DHT22;7323;50.848;4.334;2024-03-07T02:34:56;6.80;94.70
14475;DHT22;7323;50.848;4.334;2024-03-07T02:37:22;6.80;95.30
14475;DHT22;7323;50.848;4.334;2024-03-07T02:39:48;6.70;96.00
14475;DHT22;7323;50.848;4.334;2024-03-07T02:42:13;6.70;97.40
14475;DHT22;7323;50.848;4.334;2024-03-07T02:44:39;6.60;98.40
14475;DHT22;7323;50.848;4.334;2024-03-07T02:47:06;6.70;99.20
14475;DHT22;7323;50.848;4.334;2024-03-07T02:49:32;6.70;99.90
14475;DHT22;7323;50.848;4.334;2024-03-07T02:51:58;6.60;99.20
14475;DHT22;7323;50.848;4.334;2024-03-07T02:54:23;6.60;99.90
14475;DHT22;7323;50.848;4.334;2024-03-07T02:56:49;6.60;99.90
14475;DHT22;7323;50.848;4.334;2024-03-07T02:59:15;6.50;99.90
14475;DHT22;7323;50.848;4.334;2024-03-07T03:01:41;6.50;99.90
14475;DHT22;7323;50.848;4.334;2024-03-07T03:04:07;6.60;99.90
14475;DHT22;7323;50.848;4.334;2024-03-07T03:06:33;6.50;99.90
14475;DHT22;7323;50.848;4.334;2024-03-07T03:08:59;6.60;99.90
14475;DHT22;7323;50.848;4.334;2024-03-07T03:11:25;6.50;99.90
14475;DHT22;7323;50.848;4.334;2024-03-07T03:13:53;6.50;99.90
14475;DHT22;7323;50.848;4.334;2024-03-07T03:16:19;6.40;99.90
14475;DHT22;7323;50.848;4.334;2024-03-07T03:18:45;6.40;99.90
14475;DHT22;7323;50.848;4.334;2024-03-07T03:21:10;6.40;99.90
14475;DHT22;7323;50.848;4.334;2024-03-07T03:23:36;6.50;99.90
14475;DHT22;7323;50.848;4.334;2024-03-07T03:26:02;6.30;99.90
14475;DHT22;7323;50.848;4.334;2024-03-07T03:28:29;6.30;99.90
14475;DHT22;7323;50.848;4.334;2024-03-07T03:30:54;6.50;99.90
14475;DHT22;7323;50.848;4.334;2024-03-07T03:33:20;6.30;99.90
14475;DHT22;7323;50.848;4.334;2024-03-07T03:35:46;6.30;99.90
14475;DHT22;7323;50.848;4.334;2024-03-07T03:38:12;6.20;99.90
14475;DHT22;7323;50.848;4.334;2024-03-07T03:40:38;6.30;99.90
14475;DHT22;7323;50.848;4.334;2024-03-07T03:43:04;6.20;99.90
14475;DHT22;7323;50.848;4.334;2024-03-07T03:45:30;6.20;99.90
14475;DHT22;7323;50.848;4.334;2024-03-07T03:47:57;6.20;99.90
14475;DHT22;7323;50.848;4.334;2024-03-07T03:50:23;6.20;99.90
14475;DHT22;7323;50.848;4.334;2024-03-07T03:52:49;6.30;99.90
14475;DHT22;7323;50.848;4.334;2024-03-07T03:55:15;6.30;99.90
14475;DHT22;7323;50.848;4.334;2024-03-07T03:57:42;6.20;99.90
14475;DHT22;7323;50.848;4.334;2024-03-07T04:00:09;6.20;99.90
14475;DHT22;7323;50.848;4.334;2024-03-07T04:02:44;6.10;99.90
14475;DHT22;7323;50.848;4.334;2024-03-07T04:05:13;6.20;99.90
14475;DHT22;7323;50.848;4.334;2024-03-07T04:07:40;6.10;99.90
14475;DHT22;7323;50.848;4.334;2024-03-07T04:10:07;6.10;99.90
14475;DHT22;7323;50.848;4.334;2024-03-07T04:12:39;6.10;99.90
14475;DHT22;7323;50.848;4.334;2024-03-07T04:15:06;6.00;99.90
14475;DHT22;7323;50.848;4.334;2024-03-07T04:17:33;6.00;99.90
14475;DHT22;7323;50.848;4.334;2024-03-07T04:20:00;6.00;99.90
14475;DHT22;7323;50.848;4.334;2024-03-07T04:22:26;6.00;99.90
14475;DHT22;7323;50.848;4.334;2024-03-07T04:24:53;6.00;99.90
14475;DHT22;7323;50.848;4.334;2024-03-07T04:27:21;5.90;99.90
14475;DHT22;7323;50.848;4.334;2024-03-07T04:29:47;6.20;99.90
14475;DHT22;7323;50.848;4.334;2024-03-07T04:32:14;5.90;99.90
14475;DHT22;7323;50.848;4.334;2024-03-07T04:34:40;5.90;99.90
14475;DHT22;7323;50.848;4.334;2024-03-07T04:37:06;5.90;99.90
14475;DHT22;7323;50.848;4.334;2024-03-07T04:39:32;5.90;99.90
14475;DHT22;7323;50.848;4.334;2024-03-07T04:42:08;6.00;99.90
14475;DHT22;7323;50.848;4.334;2024-03-07T04:44:36;6.00;99.90
14475;DHT22;7323;50.848;4.334;2024-03-07T04:47:03;6.00;99.90
14475;DHT22;7323;50.848;4.334;2024-03-07T04:49:31;5.90;99.90
14475;DHT22;7323;50.848;4.334;2024-03-07T04:51:59;6.00;99.90
14475;DHT22;7323;50.848;4.334;2024-03-07T04:54:26;6.10;99.90
14475;DHT22;7323;50.848;4.334;2024-03-07T04:56:53;5.90;99.90
14475;DHT22;7323;50.848;4.334;2024-03-07T04:59:20;5.90;99.90
14475;DHT22;7323;50.848;4.334;2024-03-07T05:01:47;6.00;99.90
14475;DHT22;7323;50.848;4.334;2024-03-07T05:04:14;6.00;99.90
14475;DHT22;7323;50.848;4.334;2024-03-07T05:06:40;5.90;99.90
14475;DHT22;7323;50.848;4.334;2024-03-07T05:09:07;5.90;99.90
14475;DHT22;7323;50.848;4.334;2024-03-07T05:11:34;5.90;99.90
14475;DHT22;7323;50.848;4.334;2024-03-07T05:14:01;6.00;99.90
14475;DHT22;7323;50.848;4.334;2024-03-07T05:16:27;5.80;99.90
14475;DHT22;7323;50.848;4.334;2024-03-07T05:18:53;5.70;99.90
14475;DHT22;7323;50.848;4.334;2024-03-07T05:21:19;5.70;99.90
14475;DHT22;7323;50.848;4.334;2024-03-07T05:24:04;5.90;99.90
14475;DHT22;7323;50.848;4.334;2024-03-07T05:26:34;5.70;99.90
14475;DHT22;7323;50.848;4.334;2024-03-07T05:29:02;5.80;99.90
14475;DHT22;7323;50.848;4.334;2024-03-07T05:31:36;5.80;99.90
14475;DHT22;7323;50.848;4.334;2024-03-07T05:34:03;6.00;99.90
14475;DHT22;7323;50.848;4.334;2024-03-07T05:36:32;5.90;99.90
14475;DHT22;7323;50.848;4.334;2024-03-07T05:38:58;5.90;99.90
14475;DHT22;7323;50.848;4.334;2024-03-07T05:41:34;5.90;99.90
14475;DHT22;7323;50.848;4.334;2024-03-07T05:43:59;5.90;99.90
14475;DHT22;7323;50.848;4.334;2024-03-07T05:46:25;5.90;99.90
14475;DHT22;7323;50.848;4.334;2024-03-07T05:48:51;5.90;99.90
14475;DHT22;7323;50.848;4.334;2024-03-07T05:51:24;5.80;99.90
14475;DHT22;7323;50.848;4.334;2024-03-07T05:53:50;5.70;99.90
14475;DHT22;7323;50.848;4.334;2024-03-07T05:56:16;5.60;99.90
14475;DHT22;7323;50.848;4.334;2024-03-07T05:58:42;5.50;99.90
14475;DHT22;7323;50.848;4.334;2024-03-07T06:01:08;5.50;99.90
14475;DHT22;7323;50.848;4.334;2024-03-07T06:03:34;5.40;99.90
14475;DHT22;7323;50.848;4.334;2024-03-07T06:06:00;5.50;99.90
14475;DHT22;7323;50.848;4.334;2024-03-07T06:08:25;5.40;99.90
14475;DHT22;7323;50.848;4.334;2024-03-07T06:10:52;5.40;99.90
14475;DHT22;7323;50.848;4.334;2024-03-07T06:13:18;5.40;99.90
14475;DHT22;7323;50.848;4.334;2024-03-07T06:15:44;5.40;99.90
14475;DHT22;7323;50.848;4.334;2024-03-07T06:18:12;5.40;99.90
14475;DHT22;7323;50.848;4.334;2024-03-07T06:20:42;5.30;99.90
14475;DHT22;7323;50.848;4.334;2024-03-07T06:23:09;5.30;99.90
14475;DHT22;7323;50.848;4.334;2024-03-07T06:25:37;5.40;99.90
14475;DHT22;7323;50.848;4.334;2024-03-07T06:28:13;5.50;99.90
14475;DHT22;7323;50.848;4.334;2024-03-07T06:30:40;5.40;99.90
14475;DHT22;7323;50.848;4.334;2024-03-07T06:33:07;5.50;99.90
14475;DHT22;7323;50.848;4.334;2024-03-07T06:35:33;5.60;99.90
14475;DHT22;7323;50.848;4.334;2024-03-07T06:38:03;5.40;99.90
14475;DHT22;7323;50.848;4.334;2024-03-07T06:40:29;5.40;99.90
14475;DHT22;7323;50.848;4.334;2024-03-07T06:42:55;5.40;99.90
14475;DHT22;7323;50.848;4.334;2024-03-07T06:45:20;5.40;99.90
14475;DHT22;7323;50.848;4.334;2024-03-07T06:47:46;5.50;99.90
14475;DHT22;7323;50.848;4.334;2024-03-07T06:50:12;5.40;99.90
14475;DHT22;7323;50.848;4.334;2024-03-07T06:52:46;5.40;99.90
14475;DHT22;7323;50.848;4.334;2024-03-07T06:55:18;5.50;99.90
14475;DHT22;7323;50.848;4.334;2024-03-07T06:57:45;5.30;99.90
14475;DHT22;7323;50.848;4.334;2024-03-07T07:00:15;5.30;99.90
14475;DHT22;7323;50.848;4.334;2024-03-07T07:02:47;5.40;99.90
14475;DHT22;7323;50.848;4.334;2024-03-07T07:05:14;5.40;99.90
14475;DHT22;7323;50.848;4.334;2024-03-07T07:07:49;5.50;99.90
14475;DHT22;7323;50.848;4.334;2024-03-07T07:10:16;5.60;99.90
14475;DHT22;7323;50.848;4.334;2024-03-07T07:12:46;5.50;99.90
14475;DHT22;7323;50.848;4.334;2024-03-07T07:15:16;5.70;99.90
14475;DHT22;7323;50.848;4.334;2024-03-07T07:17:43;5.70;99.90
14475;DHT22;7323;50.848;4.334;2024-03-07T07:20:12;5.70;99.90
14475;DHT22;7323;50.848;4.334;2024-03-07T07:22:41;5.70;99.90
14475;DHT22;7323;50.848;4.334;2024-03-07T07:25:07;5.70;99.90
14475;DHT22;7323;50.848;4.334;2024-03-07T07:27:46;5.70;99.90
14475;DHT22;7323;50.848;4.334;2024-03-07T07:30:14;5.70;99.90
14475;DHT22;7323;50.848;4.334;2024-03-07T07:32:40;5.60;99.90
14475;DHT22;7323;50.848;4.334;2024-03-07T07:35:08;5.60;99.90
14475;DHT22;7323;50.848;4.334;2024-03-07T07:37:41;5.70;99.90
14475;DHT22;7323;50.848;4.334;2024-03-07T07:40:09;5.50;99.90
14475;DHT22;7323;50.848;4.334;2024-03-07T07:42:38;5.40;99.90
14475;DHT22;7323;50.848;4.334;2024-03-07T07:45:06;5.40;99.90
14475;DHT22;7323;50.848;4.334;2024-03-07T07:47:32;5.50;99.90
14475;DHT22;7323;50.848;4.334;2024-03-07T07:49:58;5.60;99.90
14475;DHT22;7323;50.848;4.334;2024-03-07T07:52:24;5.70;99.90
14475;DHT22;7323;50.848;4.334;2024-03-07T07:54:49;5.50;99.90
14475;DHT22;7323;50.848;4.334;2024-03-07T07:57:15;5.40;99.90
14475;DHT22;7323;50.848;4.334;2024-03-07T07:59:40;5.30;99.90
14475;DHT22;7323;50.848;4.334;2024-03-07T08:02:06;5.30;99.90
14475;DHT22;7323;50.848;4.334;2024-03-07T08:04:32;5.30;99.90
14475;DHT22;7323;50.848;4.334;2024-03-07T08:06:58;5.30;99.90
14475;DHT22;7323;50.848;4.334;2024-03-07T08:09:23;5.40;99.90
14475;DHT22;7323;50.848;4.334;2024-03-07T08:11:49;5.40;99.90
14475;DHT22;7323;50.848;4.334;2024-03-07T08:14:15;5.50;99.90
14475;DHT22;7323;50.848;4.334;2024-03-07T08:16:41;5.50;99.90
14475;DHT22;7323;50.848;4.334;2024-03-07T08:19:07;5.10;99.90
14475;DHT22;7323;50.848;4.334;2024-03-07T08:21:34;5.40;99.90
14475;DHT22;7323;50.848;4.334;2024-03-07T08:23:59;5.40;99.90
14475;DHT22;7323;50.848;4.334;2024-03-07T08:26:29;5.40;99.90
14475;DHT22;7323;50.848;4.334;2024-03-07T08:28:54;5.50;99.90
14475;DHT22;7323;50.848;4.334;2024-03-07T08:31:20;5.60;99.90
14475;DHT22;7323;50.848;4.334;2024-03-07T08:33:46;5.70;99.90
14475;DHT22;7323;50.848;4.334;2024-03-07T08:36:12;5.70;99.90
14475;DHT22;7323;50.848;4.334;2024-03-07T08:38:37;5.80;99.90
14475;DHT22;7323;50.848;4.334;2024-03-07T08:41:03;5.90;99.90
14475;DHT22;7323;50.848;4.334;2024-03-07T08:43:29;5.90;99.90
14475;DHT22;7323;50.848;4.334;2024-03-07T08:45:54;5.90;99.90
14475;DHT22;7323;50.848;4.334;2024-03-07T08:48:20;5.90;99.90
14475;DHT22;7323;50.848;4.334;2024-03-07T08:50:45;6.00;99.90
14475;DHT22;7323;50.848;4.334;2024-03-07T08:53:11;5.80;99.90
14475;DHT22;7323;50.848;4.334;2024-03-07T08:55:37;5.80;99.90
14475;DHT22;7323;50.848;4.334;2024-03-07T08:58:03;5.90;99.90
14475;DHT22;7323;50.848;4.334;2024-03-07T09:00:28;5.80;99.90
14475;DHT22;7323;50.848;4.334;2024-03-07T09:02:57;5.90;99.90
14475;DHT22;7323;50.848;4.334;2024-03-07T09:05:24;6.10;99.90
14475;DHT22;7323;50.848;4.334;2024-03-07T09:07:53;6.20;99.90
14475;DHT22;7323;50.848;4.334;2024-03-07T09:10:19;6.20;99.90
14475;DHT22;7323;50.848;4.334;2024-03-07T09:12:47;6.40;99.90
14475;DHT22;7323;50.848;4.334;2024-03-07T09:15:16;6.40;99.90
14475;DHT22;7323;50.848;4.334;2024-03-07T09:17:46;6.40;99.90
14475;DHT22;7323;50.848;4.334;2024-03-07T09:20:13;6.40;99.90
14475;DHT22;7323;50.848;4.334;2024-03-07T09:22:45;6.40;99.90
14475;DHT22;7323;50.848;4.334;2024-03-07T09:25:13;6.50;99.90
14475;DHT22;7323;50.848;4.334;2024-03-07T09:27:39;6.50;99.90
14475;DHT22;7323;50.848;4.334;2024-03-07T09:30:08;6.60;99.90
14475;DHT22;7323;50.848;4.334;2024-03-07T09:32:41;6.60;99.90
14475;DHT22;7323;50.848;4.334;2024-03-07T09:35:10;6.50;99.90
14475;DHT22;7323;50.848;4.334;2024-03-07T09:37:43;6.50;99.90
14475;DHT22;7323;50.848;4.334;2024-03-07T09:40:10;6.70;99.90
14475;DHT22;7323;50.848;4.334;2024-03-07T09:42:44;6.70;99.90
14475;DHT22;7323;50.848;4.334;2024-03-07T09:45:14;6.90;99.90
14475;DHT22;7323;50.848;4.334;2024-03-07T09:47:41;6.90;99.90
14475;DHT22;7323;50.848;4.334;2024-03-07T09:50:08;7.00;99.90
14475;DHT22;7323;50.848;4.334;2024-03-07T09:52:34;7.00;99.90
14475;DHT22;7323;50.848;4.334;2024-03-07T09:55:01;7.00;99.90
14475;DHT22;7323;50.848;4.334;2024-03-07T09:57:30;7.10;99.90
14475;DHT22;7323;50.848;4.334;2024-03-07T09:59:58;7.30;99.90
14475;DHT22;7323;50.848;4.334;2024-03-07T10:02:25;7.40;99.90
14475;DHT22;7323;50.848;4.334;2024-03-07T10:04:53;7.60;99.90
14475;DHT22;7323;50.848;4.334;2024-03-07T10:07:20;7.60;99.90
14475;DHT22;7323;50.848;4.334;2024-03-07T10:09:47;7.60;99.90
14475;DHT22;7323;50.848;4.334;2024-03-07T10:12:13;7.50;99.90
14475;DHT22;7323;50.848;4.334;2024-03-07T10:14:49;7.50;99.90
14475;DHT22;7323;50.848;4.334;2024-03-07T10:17:16;7.60;99.90
14475;DHT22;7323;50.848;4.334;2024-03-07T10:19:46;7.60;99.90
14475;DHT22;7323;50.848;4.334;2024-03-07T10:22:12;7.60;99.90
14475;DHT22;7323;50.848;4.334;2024-03-07T10:24:37;7.60;99.90
14475;DHT22;7323;50.848;4.334;2024-03-07T10:27:04;7.70;99.90
14475;DHT22;7323;50.848;4.334;2024-03-07T10:29:29;7.90;99.90
14475;DHT22;7323;50.848;4.334;2024-03-07T10:31:55;8.00;99.90
14475;DHT22;7323;50.848;4.334;2024-03-07T10:34:21;8.10;99.90
14475;DHT22;7323;50.848;4.334;2024-03-07T10:36:49;8.20;99.90
14475;DHT22;7323;50.848;4.334;2024-03-07T10:39:14;8.20;99.90
14475;DHT22;7323;50.848;4.334;2024-03-07T10:41:45;8.30;99.90
14475;DHT22;7323;50.848;4.334;2024-03-07T10:44:24;8.30;99.90
14475;DHT22;7323;50.848;4.334;2024-03-07T10:46:54;8.40;99.90
14475;DHT22;7323;50.848;4.334;2024-03-07T10:49:20;8.60;99.90
14475;DHT22;7323;50.848;4.334;2024-03-07T10:52:13;8.60;99.90
14475;DHT22;7323;50.848;4.334;2024-03-07T10:57:38;8.70;99.90
14475;DHT22;7323;50.848;4.334;2024-03-07T11:00:08;8.80;99.90
14475;DHT22;7323;50.848;4.334;2024-03-07T11:02:53;8.80;99.20
14475;DHT22;7323;50.848;4.334;2024-03-07T11:05:26;8.80;97.10
14475;DHT22;7323;50.848;4.334;2024-03-07T11:07:56;9.00;98.80
14475;DHT22;7323;50.848;4.334;2024-03-07T11:10:23;9.10;96.20
14475;DHT22;7323;50.848;4.334;2024-03-07T11:12:50;9.20;93.80
14475;DHT22;7323;50.848;4.334;2024-03-07T11:15:18;9.30;93.30
14475;DHT22;7323;50.848;4.334;2024-03-07T11:17:47;9.50;91.90
14475;DHT22;7323;50.848;4.334;2024-03-07T11:22:49;9.60;87.40
14475;DHT22;7323;50.848;4.334;2024-03-07T11:25:21;9.90;85.70
14475;DHT22;7323;50.848;4.334;2024-03-07T11:28:00;9.90;74.90
14475;DHT22;7323;50.848;4.334;2024-03-07T11:30:27;9.90;47.60
14475;DHT22;7323;50.848;4.334;2024-03-07T11:32:54;9.90;11.20
14475;DHT22;7323;50.848;4.334;2024-03-07T11:35:33;9.90;10.10
14475;DHT22;7323;50.848;4.334;2024-03-07T11:38:01;10.00;4.90
14475;DHT22;7323;50.848;4.334;2024-03-07T11:42:56;10.20;1.00
14475;DHT22;7323;50.848;4.334;2024-03-07T11:45:26;10.20;1.00
14475;DHT22;7323;50.848;4.334;2024-03-07T11:47:56;10.30;1.00
14475;DHT22;7323;50.848;4.334;2024-03-07T11:50:40;10.30;1.00
14475;DHT22;7323;50.848;4.334;2024-03-07T11:53:07;10.50;1.00
14475;DHT22;7323;50.848;4.334;2024-03-07T11:55:39;10.70;1.00
14475;DHT22;7323;50.848;4.334;2024-03-07T11:58:15;10.80;1.00
14475;DHT22;7323;50.848;4.334;2024-03-07T12:00:44;10.90;1.00
14475;DHT22;7323;50.848;4.334;2024-03-07T12:03:12;11.00;1.00
14475;DHT22;7323;50.848;4.334;2024-03-07T12:05:40;11.00;99.90
14475;DHT22;7323;50.848;4.334;2024-03-07T12:08:06;11.00;99.90
14475;DHT22;7323;50.848;4.334;2024-03-07T12:10:32;10.90;99.90
14475;DHT22;7323;50.848;4.334;2024-03-07T12:12:59;10.90;99.90
14475;DHT22;7323;50.848;4.334;2024-03-07T12:15:27;11.00;99.90
14475;DHT22;7323;50.848;4.334;2024-03-07T12:17:53;11.10;99.90
14475;DHT22;7323;50.848;4.334;2024-03-07T12:20:21;11.10;99.90
14475;DHT22;7323;50.848;4.334;2024-03-07T12:22:57;11.00;99.90
14475;DHT22;7323;50.848;4.334;2024-03-07T12:25:26;10.80;99.90
14475;DHT22;7323;50.848;4.334;2024-03-07T12:28:00;10.80;99.90
14475;DHT22;7323;50.848;4.334;2024-03-07T12:30:33;10.80;99.90
14475;DHT22;7323;50.848;4.334;2024-03-07T12:33:02;10.70;99.90
14475;DHT22;7323;50.848;4.334;2024-03-07T12:35:30;10.80;99.90
14475;DHT22;7323;50.848;4.334;2024-03-07T12:37:58;10.60;99.90
14475;DHT22;7323;50.848;4.334;2024-03-07T12:40:26;10.60;99.90
14475;DHT22;7323;50.848;4.334;2024-03-07T12:42:54;10.60;99.90
14475;DHT22;7323;50.848;4.334;2024-03-07T12:45:20;10.50;99.90
14475;DHT22;7323;50.848;4.334;2024-03-07T12:47:51;10.50;99.90
14475;DHT22;7323;50.848;4.334;2024-03-07T12:50:19;10.50;99.90
14475;DHT22;7323;50.848;4.334;2024-03-07T12:52:48;10.60;99.90
14475;DHT22;7323;50.848;4.334;2024-03-07T12:55:18;10.80;99.90
14475;DHT22;7323;50.848;4.334;2024-03-07T12:57:44;11.00;99.90
14475;DHT22;7323;50.848;4.334;2024-03-07T13:00:11;10.80;99.90
14475;DHT22;7323;50.848;4.334;2024-03-07T13:02:45;10.90;99.90
14475;DHT22;7323;50.848;4.334;2024-03-07T13:05:11;10.80;99.90
14475;DHT22;7323;50.848;4.334;2024-03-07T13:07:47;10.70;99.90
14475;DHT22;7323;50.848;4.334;2024-03-07T13:10:14;10.80;99.90
14475;DHT22;7323;50.848;4.334;2024-03-07T13:12:43;10.90;99.90
14475;DHT22;7323;50.848;4.334;2024-03-07T13:15:11;10.90;99.90
14475;DHT22;7323;50.848;4.334;2024-03-07T13:17:37;11.00;99.90
14475;DHT22;7323;50.848;4.334;2024-03-07T13:20:03;10.80;99.90
14475;DHT22;7323;50.848;4.334;2024-03-07T13:22:43;10.70;99.90
14475;DHT22;7323;50.848;4.334;2024-03-07T13:25:23;10.60;99.90
14475;DHT22;7323;50.848;4.334;2024-03-07T13:30:34;10.60;99.90
14475;DHT22;7323;50.848;4.334;2024-03-07T13:33:02;10.70;99.90
14475;DHT22;7323;50.848;4.334;2024-03-07T13:35:29;10.80;99.90
14475;DHT22;7323;50.848;4.334;2024-03-07T13:37:55;10.70;99.90
14475;DHT22;7323;50.848;4.334;2024-03-07T13:40:26;10.60;99.90
14475;DHT22;7323;50.848;4.334;2024-03-07T13:42:59;10.60;99.90
14475;DHT22;7323;50.848;4.334;2024-03-07T13:45:27;10.70;99.90
14475;DHT22;7323;50.848;4.334;2024-03-07T13:47:54;10.70;99.90
14475;DHT22;7323;50.848;4.334;2024-03-07T13:50:22;10.70;99.90
14475;DHT22;7323;50.848;4.334;2024-03-07T13:52:50;10.70;99.90
14475;DHT22;7323;50.848;4.334;2024-03-07T13:55:46;10.60;99.90
14475;DHT22;7323;50.848;4.334;2024-03-07T13:58:23;10.60;99.90
14475;DHT22;7323;50.848;4.334;2024-03-07T14:14:40;10.80;99.90
14475;DHT22;7323;50.848;4.334;2024-03-07T14:23:30;11.00;99.90
14475;DHT22;7323;50.848;4.334;2024-03-07T14:31:39;11.20;99.90
14475;DHT22;7323;50.848;4.334;2024-03-07T14:34:24;11.20;99.90
14475;DHT22;7323;50.848;4.334;2024-03-07T14:37:08;11.20;99.90
14475;DHT22;7323;50.848;4.334;2024-03-07T14:39:35;11.20;99.90
14475;DHT22;7323;50.848;4.334;2024-03-07T14:42:04;11.30;99.90
14475;DHT22;7323;50.848;4.334;2024-03-07T14:44:37;11.30;99.90
14475;DHT22;7323;50.848;4.334;2024-03-07T14:47:06;11.50;99.90
14475;DHT22;7323;50.848;4.334;2024-03-07T14:49:34;11.70;99.90
14475;DHT22;7323;50.848;4.334;2024-03-07T14:52:01;11.70;99.90
14475;DHT22;7323;50.848;4.334;2024-03-07T14:54:28;11.70;99.90
14475;DHT22;7323;50.848;4.334;2024-03-07T14:56:54;11.60;99.90
14475;DHT22;7323;50.848;4.334;2024-03-07T14:59:20;11.30;99.90
14475;DHT22;7323;50.848;4.334;2024-03-07T15:01:46;11.10;99.90
14475;DHT22;7323;50.848;4.334;2024-03-07T15:04:13;11.20;99.90
14475;DHT22;7323;50.848;4.334;2024-03-07T15:06:39;11.30;99.90
14475;DHT22;7323;50.848;4.334;2024-03-07T15:09:06;11.30;99.90
14475;DHT22;7323;50.848;4.334;2024-03-07T15:11:38;11.40;99.90
14475;DHT22;7323;50.848;4.334;2024-03-07T15:14:06;11.60;99.90
14475;DHT22;7323;50.848;4.334;2024-03-07T15:16:38;11.60;99.90
14475;DHT22;7323;50.848;4.334;2024-03-07T15:19:05;11.80;99.90
14475;DHT22;7323;50.848;4.334;2024-03-07T15:21:31;12.30;99.90
14475;DHT22;7323;50.848;4.334;2024-03-07T15:23:58;12.90;99.90
14475;DHT22;7323;50.848;4.334;2024-03-07T15:26:24;13.50;99.90
14475;DHT22;7323;50.848;4.334;2024-03-07T15:28:51;13.70;99.90
14475;DHT22;7323;50.848;4.334;2024-03-07T15:31:17;13.30;99.90
14475;DHT22;7323;50.848;4.334;2024-03-07T15:33:46;13.40;99.90
14475;DHT22;7323;50.848;4.334;2024-03-07T15:36:13;13.50;99.90
14475;DHT22;7323;50.848;4.334;2024-03-07T15:38:38;13.60;99.90
14475;DHT22;7323;50.848;4.334;2024-03-07T15:41:05;14.00;99.90
14475;DHT22;7323;50.848;4.334;2024-03-07T15:43:32;14.10;99.90
14475;DHT22;7323;50.848;4.334;2024-03-07T15:45:57;14.30;99.90
14475;DHT22;7323;50.848;4.334;2024-03-07T15:48:23;14.50;99.90
14475;DHT22;7323;50.848;4.334;2024-03-07T15:50:53;14.10;99.90
14475;DHT22;7323;50.848;4.334;2024-03-07T15:53:19;14.10;99.90
14475;DHT22;7323;50.848;4.334;2024-03-07T15:55:45;14.20;99.90
14475;DHT22;7323;50.848;4.334;2024-03-07T15:58:11;14.00;99.90
14475;DHT22;7323;50.848;4.334;2024-03-07T16:00:38;14.20;99.90
14475;DHT22;7323;50.848;4.334;2024-03-07T16:03:05;14.20;99.90
14475;DHT22;7323;50.848;4.334;2024-03-07T16:05:37;14.30;99.90
14475;DHT22;7323;50.848;4.334;2024-03-07T16:08:05;14.40;99.90
14475;DHT22;7323;50.848;4.334;2024-03-07T16:10:33;14.10;99.90
14475;DHT22;7323;50.848;4.334;2024-03-07T16:13:01;13.60;99.90
14475;DHT22;7323;50.848;4.334;2024-03-07T16:15:28;13.90;99.90
14475;DHT22;7323;50.848;4.334;2024-03-07T16:17:54;14.00;99.90
14475;DHT22;7323;50.848;4.334;2024-03-07T16:20:22;13.80;99.90
14475;DHT22;7323;50.848;4.334;2024-03-07T16:22:48;13.70;99.90
14475;DHT22;7323;50.848;4.334;2024-03-07T16:25:17;13.80;99.90
14475;DHT22;7323;50.848;4.334;2024-03-07T16:27:46;14.10;99.90
14475;DHT22;7323;50.848;4.334;2024-03-07T16:30:13;14.30;99.90
14475;DHT22;7323;50.848;4.334;2024-03-07T16:32:40;14.40;99.90
14475;DHT22;7323;50.848;4.334;2024-03-07T16:35:06;14.40;99.90
14475;DHT22;7323;50.848;4.334;2024-03-07T16:37:39;14.10;99.90